createdAt,value
2017-11-30T00:01:41.872Z,49.28
2017-11-30T00:04:10.217Z,49.97
2017-11-30T00:06:38.504Z,46.28
2017-11-30T00:09:08.143Z,57.42
2017-11-30T00:11:36.363Z,50.00
2017-11-30T00:14:04.659Z,58.22
2017-11-30T00:16:32.955Z,55.80
2017-11-30T00:19:01.291Z,59.90
2017-11-30T00:21:30.720Z,51.17
2017-11-30T00:23:59.398Z,48.22
2017-11-30T00:26:27.747Z,59.72
2017-11-30T00:28:56.042Z,52.47
2017-11-30T00:31:24.331Z,50.83
2017-11-30T00:33:53.464Z,53.97
2017-11-30T00:36:21.760Z,62.85
2017-11-30T00:38:50.812Z,50.88
2017-11-30T00:41:25.251Z,45.65
2017-11-30T00:43:53.807Z,49.55
2017-11-30T00:46:22.093Z,47.75
2017-11-30T00:48:50.437Z,51.20
2017-11-30T00:51:20.236Z,53.13
2017-11-30T00:53:48.537Z,43.67
2017-11-30T00:56:16.885Z,57.35
2017-11-30T00:58:46.531Z,48.55
2017-11-30T01:01:15.091Z,54.10
2017-11-30T01:03:43.435Z,54.57
2017-11-30T01:06:13.079Z,53.50
2017-11-30T01:08:41.648Z,59.15
2017-11-30T01:11:09.994Z,62.80
2017-11-30T01:13:38.289Z,62.10
2017-11-30T01:16:07.337Z,59.17
2017-11-30T01:18:35.687Z,53.80
2017-11-30T01:21:04.743Z,55.20
2017-11-30T01:23:33.431Z,49.30
2017-11-30T01:26:01.788Z,58.40
2017-11-30T01:28:30.079Z,56.90
2017-11-30T01:30:58.372Z,60.30
2017-11-30T01:33:26.711Z,67.17
2017-11-30T01:35:55.001Z,53.30
2017-11-30T01:38:23.284Z,53.08
2017-11-30T01:40:52.751Z,49.37
2017-11-30T01:43:21.036Z,47.90
2017-11-30T01:45:49.316Z,46.63
2017-11-30T01:48:17.653Z,44.07
2017-11-30T01:50:45.943Z,46.77
2017-11-30T01:53:14.989Z,41.97
2017-11-30T01:55:43.315Z,43.20
2017-11-30T01:58:11.598Z,42.67
2017-11-30T02:00:41.012Z,42.47
2017-11-30T02:03:09.340Z,45.27
2017-11-30T02:05:38.983Z,39.43
2017-11-30T02:08:07.921Z,48.57
2017-11-30T02:10:36.251Z,43.37
2017-11-30T02:13:04.541Z,43.73
2017-11-30T02:15:32.823Z,47.83
2017-11-30T02:18:01.148Z,44.60
2017-11-30T02:20:30.561Z,48.93
2017-11-30T02:22:58.842Z,45.17
2017-11-30T02:25:27.197Z,47.57
2017-11-30T02:27:55.491Z,50.30
2017-11-30T02:30:23.782Z,51.63
2017-11-30T02:32:52.910Z,51.30
2017-11-30T02:35:21.960Z,47.00
2017-11-30T02:37:51.007Z,51.90
2017-11-30T02:40:19.358Z,49.10
2017-11-30T02:42:47.657Z,47.77
2017-11-30T02:45:19.432Z,48.80
2017-11-30T02:47:47.718Z,52.80
2017-11-30T02:50:16.002Z,49.42
2017-11-30T02:52:44.345Z,56.83
2017-11-30T02:55:12.630Z,53.97
2017-11-30T02:57:42.286Z,48.85
2017-11-30T03:00:10.895Z,59.03
2017-11-30T03:02:39.179Z,63.47
2017-11-30T03:05:08.591Z,63.17
2017-11-30T03:07:36.939Z,56.08
2017-11-30T03:10:05.220Z,63.00
2017-11-30T03:12:33.507Z,55.70
2017-11-30T03:15:02.612Z,55.97
2017-11-30T03:17:30.911Z,63.20
2017-11-30T03:19:59.227Z,60.50
2017-11-30T03:22:29.079Z,61.07
2017-11-30T03:24:57.377Z,65.57
2017-11-30T03:27:25.660Z,66.25
2017-11-30T03:29:53.997Z,73.20
2017-11-30T03:32:22.281Z,60.00
2017-11-30T03:34:51.328Z,70.17
2017-11-30T03:37:19.663Z,78.43
2017-11-30T03:39:48.714Z,77.87
2017-11-30T03:42:18.140Z,83.60
2017-11-30T03:44:46.485Z,75.27
2017-11-30T03:47:14.763Z,76.93
2017-11-30T03:49:43.044Z,72.10
2017-11-30T03:52:11.393Z,67.73
2017-11-30T03:54:40.444Z,71.83
2017-11-30T03:57:09.509Z,76.22
2017-11-30T03:59:38.622Z,78.17
2017-11-30T04:02:06.912Z,75.47
2017-11-30T04:04:35.194Z,75.97
2017-11-30T04:07:04.880Z,81.87
2017-11-30T04:09:33.043Z,81.40
2017-11-30T04:12:01.321Z,82.97
2017-11-30T04:14:30.428Z,79.28
2017-11-30T04:17:00.221Z,71.13
2017-11-30T04:19:28.504Z,80.57
2017-11-30T04:21:56.852Z,91.43
2017-11-30T04:24:25.121Z,82.90
2017-11-30T04:26:54.178Z,82.87
2017-11-30T04:29:22.516Z,78.83
2017-11-30T04:31:52.164Z,84.57
2017-11-30T04:34:20.716Z,76.13
2017-11-30T04:36:49.062Z,91.13
2017-11-30T04:39:18.119Z,85.90
2017-11-30T04:41:46.396Z,79.70
2017-11-30T04:44:14.722Z,93.57
2017-11-30T04:46:43.020Z,92.77
2017-11-30T04:49:11.297Z,78.47
2017-11-30T04:51:41.955Z,75.40
2017-11-30T04:54:11.255Z,80.13
2017-11-30T04:56:39.544Z,85.67
2017-11-30T04:59:07.881Z,90.87
2017-11-30T05:01:37.300Z,85.23
2017-11-30T05:04:06.353Z,81.93
2017-11-30T05:06:34.691Z,84.63
2017-11-30T05:09:02.979Z,91.67
2017-11-30T05:11:32.401Z,77.23
2017-11-30T05:14:00.744Z,94.67
2017-11-30T05:16:29.023Z,80.33
2017-11-30T05:18:57.298Z,74.07
2017-11-30T05:21:25.632Z,74.23
2017-11-30T05:23:54.304Z,85.70
2017-11-30T05:26:22.595Z,94.73
2017-11-30T05:28:51.055Z,91.30
2017-11-30T05:31:20.522Z,98.57
2017-11-30T05:33:49.579Z,109.43
2017-11-30T05:36:17.905Z,94.67
2017-11-30T05:38:46.186Z,98.90
2017-11-30T05:41:15.232Z,88.13
2017-11-30T05:43:43.574Z,99.50
2017-11-30T05:46:12.628Z,91.53
2017-11-30T05:48:41.676Z,78.23
2017-11-30T05:51:10.037Z,75.27
2017-11-30T05:53:38.323Z,74.80
2017-11-30T05:56:06.609Z,86.83
2017-11-30T05:58:36.080Z,73.60
2017-11-30T06:01:05.125Z,74.03
2017-11-30T06:03:33.409Z,82.87
2017-11-30T06:06:02.280Z,80.40
2017-11-30T06:08:31.920Z,80.20
2017-11-30T06:11:00.485Z,73.30
2017-11-30T06:13:28.824Z,71.20
2017-11-30T06:15:58.612Z,67.10
2017-11-30T06:18:26.903Z,76.43
2017-11-30T06:20:55.254Z,63.90
2017-11-30T06:23:23.567Z,70.73
2017-11-30T06:25:53.365Z,79.40
2017-11-30T06:28:21.868Z,68.83
2017-11-30T06:30:50.147Z,63.50
2017-11-30T06:33:18.439Z,64.70
2017-11-30T06:35:46.768Z,64.27
2017-11-30T06:38:15.820Z,58.27
2017-11-30T06:40:44.103Z,72.37
2017-11-30T06:43:13.204Z,73.83
2017-11-30T06:45:41.888Z,65.30
2017-11-30T06:48:10.175Z,56.73
2017-11-30T06:50:39.864Z,62.50
2017-11-30T06:53:08.031Z,59.07
2017-11-30T06:55:36.312Z,55.53
2017-11-30T06:58:06.464Z,50.00
2017-11-30T07:00:35.145Z,51.40
2017-11-30T07:03:03.433Z,48.10
2017-11-30T07:05:31.769Z,52.23
2017-11-30T07:08:01.415Z,46.33
2017-11-30T07:10:29.571Z,49.00
2017-11-30T07:12:57.902Z,56.23
2017-11-30T07:15:27.548Z,52.27
2017-11-30T07:17:56.113Z,52.77
2017-11-30T07:20:24.440Z,51.77
2017-11-30T07:22:53.498Z,45.77
2017-11-30T07:25:21.785Z,50.83
2017-11-30T07:27:50.122Z,48.10
2017-11-30T07:30:18.405Z,46.07
2017-11-30T07:32:46.689Z,45.83
2017-11-30T07:35:15.036Z,62.73
2017-11-30T07:37:43.311Z,47.70
2017-11-30T07:40:12.392Z,56.60
2017-11-30T07:42:41.483Z,50.70
2017-11-30T07:45:09.778Z,46.40
2017-11-30T07:47:38.854Z,50.50
2017-11-30T07:50:07.954Z,48.70
2017-11-30T07:52:36.229Z,55.60
2017-11-30T07:55:05.647Z,45.00
2017-11-30T07:57:33.987Z,47.13
2017-11-30T08:00:02.267Z,42.63
2017-11-30T08:02:30.544Z,42.70
2017-11-30T08:04:59.641Z,39.30
2017-11-30T08:07:27.927Z,33.93
2017-11-30T08:09:57.003Z,42.40
2017-11-30T08:12:25.332Z,40.63
2017-11-30T08:14:54.008Z,42.73
2017-11-30T08:17:22.288Z,45.57
2017-11-30T08:19:50.728Z,44.00
2017-11-30T08:22:19.409Z,39.43
2017-11-30T08:24:48.457Z,39.40
2017-11-30T08:27:16.804Z,38.47
2017-11-30T08:29:45.848Z,42.07
2017-11-30T08:32:15.341Z,41.80
2017-11-30T08:34:45.050Z,38.13
2017-11-30T08:37:13.616Z,41.37
2017-11-30T08:39:41.895Z,38.30
2017-11-30T08:42:11.359Z,38.17
2017-11-30T08:44:40.415Z,38.20
2017-11-30T08:47:08.694Z,41.50
2017-11-30T08:49:37.783Z,42.83
2017-11-30T08:52:06.071Z,43.60
2017-11-30T08:54:35.852Z,42.80
2017-11-30T08:57:04.199Z,37.60
2017-11-30T08:59:32.481Z,48.43
2017-11-30T09:02:00.760Z,37.27
2017-11-30T09:04:29.103Z,35.93
2017-11-30T09:06:58.520Z,41.83
2017-11-30T09:09:26.888Z,43.33
2017-11-30T09:11:55.224Z,42.90
2017-11-30T09:14:23.501Z,40.90
2017-11-30T09:16:51.793Z,39.33
2017-11-30T09:19:20.160Z,47.10
2017-11-30T09:21:48.837Z,40.83
2017-11-30T09:24:17.117Z,40.53
2017-11-30T09:26:45.447Z,36.53
2017-11-30T09:29:13.768Z,34.93
2017-11-30T09:31:42.044Z,35.57
2017-11-30T09:34:10.392Z,33.03
2017-11-30T09:36:40.028Z,36.03
2017-11-30T09:39:09.695Z,43.40
2017-11-30T09:41:38.045Z,38.70
2017-11-30T09:44:06.325Z,36.33
2017-11-30T09:46:34.621Z,38.40
2017-11-30T09:49:02.949Z,38.53
2017-11-30T09:51:31.229Z,35.07
2017-11-30T09:53:59.515Z,31.57
2017-11-30T09:56:27.857Z,30.00
2017-11-30T09:58:57.316Z,27.13
2017-11-30T10:01:25.591Z,22.00
2017-11-30T10:03:55.280Z,27.47
2017-11-30T10:06:23.835Z,24.67
2017-11-30T10:08:52.521Z,25.83
2017-11-30T10:11:21.267Z,25.93
2017-11-30T10:13:50.898Z,25.77
2017-11-30T10:16:19.463Z,23.77
2017-11-30T10:18:47.807Z,23.13
2017-11-30T10:21:17.593Z,26.00
2017-11-30T10:23:45.877Z,24.87
2017-11-30T10:26:14.207Z,25.30
2017-11-30T10:28:42.489Z,24.37
2017-11-30T10:31:10.773Z,20.50
2017-11-30T10:33:39.109Z,20.70
2017-11-30T10:36:07.397Z,23.47
2017-11-30T10:38:35.676Z,21.63
2017-11-30T10:41:04.771Z,22.53
2017-11-30T10:43:33.056Z,24.23
2017-11-30T10:46:01.349Z,22.93
2017-11-30T10:48:30.056Z,24.73
2017-11-30T10:50:58.344Z,25.00
2017-11-30T10:53:27.981Z,24.83
2017-11-30T10:55:56.199Z,27.40
2017-11-30T10:58:25.257Z,25.27
2017-11-30T11:00:53.605Z,26.00
2017-11-30T11:03:21.939Z,27.47
2017-11-30T11:05:50.216Z,26.60
2017-11-30T11:08:18.501Z,20.47
2017-11-30T11:10:46.850Z,22.37
2017-11-30T11:13:15.130Z,26.97
2017-11-30T11:15:43.409Z,28.90
2017-11-30T11:18:12.510Z,22.80
2017-11-30T11:20:40.787Z,26.60
2017-11-30T11:23:09.840Z,23.20
2017-11-30T11:25:39.312Z,27.00
2017-11-30T11:28:08.728Z,25.57
2017-11-30T11:30:37.008Z,28.70
2017-11-30T11:33:05.358Z,25.33
2017-11-30T11:35:33.647Z,23.37
2017-11-30T11:38:03.075Z,26.20
2017-11-30T11:40:31.416Z,22.93
2017-11-30T11:43:01.051Z,22.63
2017-11-30T11:45:29.608Z,25.67
2017-11-30T11:47:57.955Z,21.90
2017-11-30T11:50:26.234Z,23.50
2017-11-30T11:52:54.521Z,20.57
2017-11-30T11:55:22.869Z,20.27
2017-11-30T11:57:51.150Z,19.53
2017-11-30T12:00:20.567Z,28.00
2017-11-30T12:02:49.715Z,19.83
2017-11-30T12:05:19.352Z,22.20
2017-11-30T12:07:48.281Z,21.27
2017-11-30T12:10:16.824Z,27.90
2017-11-30T12:12:45.876Z,19.13
2017-11-30T12:15:14.937Z,20.00
2017-11-30T12:17:43.314Z,18.87
2017-11-30T12:20:12.355Z,21.10
2017-11-30T12:22:40.644Z,17.97
2017-11-30T12:25:09.373Z,16.10
2017-11-30T12:27:37.656Z,15.10
2017-11-30T12:30:05.955Z,16.87
2017-11-30T12:32:35.945Z,14.90
2017-11-30T12:35:04.266Z,15.87
2017-11-30T12:37:32.531Z,13.40
2017-11-30T12:40:00.860Z,20.07
2017-11-30T12:42:29.134Z,11.97
2017-11-30T12:44:57.412Z,13.23
2017-11-30T12:47:26.507Z,14.40
2017-11-30T12:49:55.190Z,13.63
2017-11-30T12:52:23.492Z,14.60
2017-11-30T12:54:51.823Z,16.80
2017-11-30T12:57:20.107Z,13.77
2017-11-30T12:59:48.778Z,16.80
2017-11-30T13:02:17.134Z,17.53
2017-11-30T13:04:45.446Z,22.07
2017-11-30T13:07:15.235Z,28.60
2017-11-30T13:09:43.562Z,23.73
2017-11-30T13:12:12.247Z,19.57
2017-11-30T13:14:40.537Z,19.87
2017-11-30T13:17:09.630Z,23.93
2017-11-30T13:19:38.783Z,21.13
2017-11-30T13:22:07.066Z,26.70
2017-11-30T13:24:35.398Z,28.20
2017-11-30T13:27:04.810Z,27.50
2017-11-30T13:29:33.097Z,33.80
2017-11-30T13:32:01.432Z,29.40
2017-11-30T13:34:30.483Z,29.87
2017-11-30T13:36:58.758Z,25.83
2017-11-30T13:39:27.093Z,29.20
2017-11-30T13:41:55.386Z,25.80
2017-11-30T13:44:24.809Z,27.30
2017-11-30T13:46:53.143Z,26.70
2017-11-30T13:49:22.562Z,27.93
2017-11-30T13:51:51.238Z,26.30
2017-11-30T13:54:19.561Z,25.10
2017-11-30T13:56:47.860Z,24.07
2017-11-30T13:59:16.137Z,24.93
2017-11-30T14:01:44.463Z,25.17
2017-11-30T14:04:12.739Z,24.20
2017-11-30T14:06:41.091Z,23.70
2017-11-30T14:09:09.571Z,25.53
2017-11-30T14:11:37.856Z,23.63
2017-11-30T14:14:06.906Z,20.53
2017-11-30T14:16:35.238Z,25.13
2017-11-30T14:19:04.297Z,26.60
2017-11-30T14:21:32.574Z,24.37
2017-11-30T14:24:00.957Z,23.37
2017-11-30T14:26:30.016Z,23.47
2017-11-30T14:28:59.438Z,21.33
2017-11-30T14:31:27.774Z,20.07
2017-11-30T14:33:57.197Z,23.83
2017-11-30T14:36:25.478Z,25.10
2017-11-30T14:38:53.878Z,26.67
2017-11-30T14:41:22.161Z,21.80
2017-11-30T14:43:50.442Z,25.70
2017-11-30T14:46:20.288Z,21.67
2017-11-30T14:48:49.925Z,22.50
2017-11-30T14:51:18.485Z,21.37
2017-11-30T14:53:46.973Z,25.93
2017-11-30T14:56:15.257Z,24.40
2017-11-30T14:58:44.306Z,29.63
2017-11-30T15:01:12.641Z,24.07
2017-11-30T15:03:42.441Z,25.83
2017-11-30T15:06:10.713Z,29.60
2017-11-30T15:08:41.158Z,25.37
2017-11-30T15:11:10.827Z,28.43
2017-11-30T15:13:39.102Z,27.60
2017-11-30T15:16:07.433Z,30.47
2017-11-30T15:18:35.721Z,29.50
2017-11-30T15:21:04.002Z,28.97
2017-11-30T15:23:33.699Z,28.73
2017-11-30T15:26:01.855Z,29.87
2017-11-30T15:28:30.138Z,28.43
2017-11-30T15:30:58.471Z,28.57
2017-11-30T15:33:26.751Z,26.73
2017-11-30T15:35:55.031Z,33.47
2017-11-30T15:38:24.121Z,28.27
2017-11-30T15:40:52.408Z,30.87
2017-11-30T15:43:22.209Z,25.87
2017-11-30T15:45:50.546Z,27.40
2017-11-30T15:48:18.827Z,26.40
2017-11-30T15:50:47.111Z,25.10
2017-11-30T15:53:16.798Z,28.03
2017-11-30T15:55:44.966Z,28.37
2017-11-30T15:58:13.243Z,26.30
2017-11-30T16:00:41.573Z,28.37
2017-11-30T16:03:09.849Z,24.97
2017-11-30T16:05:39.539Z,27.43
2017-11-30T16:08:08.117Z,28.90
2017-11-30T16:10:37.902Z,22.50
2017-11-30T16:13:06.195Z,22.50
2017-11-30T16:15:34.555Z,24.07
2017-11-30T16:18:02.834Z,23.57
2017-11-30T16:20:31.882Z,24.07
2017-11-30T16:23:00.231Z,22.27
2017-11-30T16:25:28.510Z,24.63
2017-11-30T16:27:56.795Z,27.40
2017-11-30T16:30:26.270Z,21.60
2017-11-30T16:32:54.550Z,20.47
2017-11-30T16:35:22.838Z,21.33
2017-11-30T16:37:51.170Z,24.57
2017-11-30T16:40:19.449Z,24.03
2017-11-30T16:42:47.737Z,21.80
2017-11-30T16:45:16.089Z,23.53
2017-11-30T16:47:44.362Z,21.73
2017-11-30T16:50:13.777Z,19.10
2017-11-30T16:52:42.502Z,23.90
2017-11-30T16:55:12.298Z,22.60
2017-11-30T16:57:40.574Z,22.50
2017-11-30T17:00:08.930Z,20.50
2017-11-30T17:02:37.615Z,20.93
2017-11-30T17:05:05.898Z,19.60
2017-11-30T17:07:35.594Z,19.70
2017-11-30T17:10:05.102Z,22.17
2017-11-30T17:12:34.405Z,21.67
2017-11-30T17:15:02.726Z,19.70
2017-11-30T17:17:31.023Z,20.20
2017-11-30T17:19:59.308Z,18.93
2017-11-30T17:22:27.755Z,17.30
2017-11-30T17:24:56.042Z,19.90
2017-11-30T17:27:25.094Z,23.80
2017-11-30T17:29:53.430Z,22.40
2017-11-30T17:32:21.801Z,23.43
2017-11-30T17:34:50.074Z,24.60
2017-11-30T17:37:18.485Z,22.23
2017-11-30T17:39:46.833Z,24.90
2017-11-30T17:42:15.553Z,24.80
2017-11-30T17:44:44.730Z,23.07
2017-11-30T17:47:13.111Z,19.93
2017-11-30T17:49:42.531Z,25.10
2017-11-30T17:52:10.864Z,22.27
2017-11-30T17:54:40.665Z,20.63
2017-11-30T17:57:08.983Z,22.60
2017-11-30T17:59:37.327Z,22.97
2017-11-30T18:02:05.648Z,20.73
2017-11-30T18:04:34.761Z,25.33
2017-11-30T18:07:03.281Z,23.30
2017-11-30T18:09:31.615Z,23.53
2017-11-30T18:11:59.911Z,22.90
2017-11-30T18:14:28.247Z,24.00
2017-11-30T18:16:57.667Z,21.10
2017-11-30T18:19:25.950Z,18.53
2017-11-30T18:21:54.411Z,18.70
2017-11-30T18:24:22.718Z,18.07
2017-11-30T18:26:51.398Z,20.70
2017-11-30T18:29:21.114Z,18.37
2017-11-30T18:31:50.578Z,16.30
2017-11-30T18:34:20.163Z,18.03
2017-11-30T18:36:48.643Z,17.77
2017-11-30T18:39:18.160Z,17.23
2017-11-30T18:41:47.235Z,19.87
2017-11-30T18:44:15.589Z,19.37
2017-11-30T18:46:44.771Z,19.97
2017-11-30T18:49:13.074Z,20.20
2017-11-30T18:51:41.430Z,20.60
2017-11-30T18:54:11.070Z,21.83
2017-11-30T18:56:40.802Z,29.57
2017-11-30T18:59:09.791Z,22.53
2017-11-30T19:01:38.161Z,28.50
2017-11-30T19:04:06.471Z,30.07
2017-11-30T19:06:35.754Z,28.17
2017-11-30T19:09:05.830Z,26.77
2017-11-30T19:11:35.654Z,28.60
2017-11-30T19:14:03.987Z,25.47
2017-11-30T19:16:32.266Z,25.83
2017-11-30T19:19:00.600Z,27.33
2017-11-30T19:21:28.883Z,27.03
2017-11-30T19:23:57.172Z,26.40
2017-11-30T19:26:25.502Z,24.80
2017-11-30T19:28:54.546Z,27.30
2017-11-30T19:31:22.826Z,28.63
2017-11-30T19:33:51.186Z,26.83
2017-11-30T19:36:19.477Z,30.23
2017-11-30T19:38:47.766Z,31.97
2017-11-30T19:41:16.859Z,31.63
2017-11-30T19:43:45.137Z,33.20
2017-11-30T19:46:14.183Z,29.60
2017-11-30T19:48:42.523Z,29.23
2017-11-30T19:51:11.562Z,33.93
2017-11-30T19:53:39.851Z,30.43
2017-11-30T19:56:08.183Z,31.13
2017-11-30T19:58:36.470Z,27.47
2017-11-30T20:01:05.893Z,26.00
2017-11-30T20:03:34.746Z,27.83
2017-11-30T20:06:03.039Z,31.37
2017-11-30T20:08:31.314Z,30.60
2017-11-30T20:11:00.409Z,31.50
2017-11-30T20:13:29.467Z,37.10
2017-11-30T20:15:58.887Z,34.03
2017-11-30T20:18:27.227Z,32.07
2017-11-30T20:20:55.516Z,33.97
2017-11-30T20:23:23.818Z,31.20
2017-11-30T20:25:52.902Z,32.00
2017-11-30T20:28:21.222Z,30.33
2017-11-30T20:30:49.481Z,34.83
2017-11-30T20:33:19.317Z,28.77
2017-11-30T20:35:48.949Z,32.00
2017-11-30T20:38:17.505Z,33.23
2017-11-30T20:40:45.849Z,33.63
2017-11-30T20:43:14.139Z,41.27
2017-11-30T20:45:42.427Z,33.43
2017-11-30T20:48:11.646Z,31.03
2017-11-30T20:50:39.926Z,32.40
2017-11-30T20:53:08.219Z,38.93
2017-11-30T20:55:36.559Z,36.37
2017-11-30T20:58:04.904Z,35.83
2017-11-30T21:00:33.122Z,35.03
2017-11-30T21:03:01.460Z,35.67
2017-11-30T21:05:29.733Z,38.70
2017-11-30T21:07:58.013Z,42.33
2017-11-30T21:10:26.746Z,42.50
2017-11-30T21:12:55.025Z,38.93
2017-11-30T21:15:24.670Z,39.23
2017-11-30T21:17:54.239Z,36.83
2017-11-30T21:20:23.926Z,40.77
2017-11-30T21:22:53.359Z,45.37
2017-11-30T21:25:22.983Z,44.00
2017-11-30T21:27:52.038Z,41.67
2017-11-30T21:30:20.331Z,37.73
2017-11-30T21:32:50.321Z,40.87
2017-11-30T21:35:18.618Z,46.77
2017-11-30T21:37:46.894Z,43.73
2017-11-30T21:40:15.238Z,43.67
2017-11-30T21:42:43.513Z,41.70
2017-11-30T21:45:13.301Z,44.77
2017-11-30T21:47:42.767Z,43.90
2017-11-30T21:50:11.816Z,44.90
2017-11-30T21:52:40.866Z,41.70
2017-11-30T21:55:09.194Z,52.30
2017-11-30T21:57:38.237Z,45.47
2017-11-30T22:00:07.299Z,48.77
2017-11-30T22:02:37.151Z,50.17
2017-11-30T22:05:05.425Z,53.23
2017-11-30T22:07:33.711Z,48.93
2017-11-30T22:10:02.436Z,51.37
2017-11-30T22:12:31.852Z,50.53
2017-11-30T22:15:00.130Z,50.50
2017-11-30T22:17:28.465Z,52.37
2017-11-30T22:19:57.146Z,48.77
2017-11-30T22:22:26.329Z,48.30
2017-11-30T22:24:55.074Z,55.73
2017-11-30T22:27:23.356Z,50.07
2017-11-30T22:29:52.408Z,50.00
2017-11-30T22:32:20.739Z,53.27
2017-11-30T22:34:49.023Z,58.40
2017-11-30T22:37:17.318Z,55.70
2017-11-30T22:39:47.187Z,52.20
2017-11-30T22:42:15.466Z,51.00
2017-11-30T22:44:43.750Z,56.00
2017-11-30T22:47:12.071Z,52.43
2017-11-30T22:49:40.353Z,48.10
2017-11-30T22:52:08.634Z,48.87
2017-11-30T22:54:37.734Z,58.00
2017-11-30T22:57:06.006Z,59.53
2017-11-30T22:59:34.292Z,56.03
2017-11-30T23:02:02.769Z,50.37
2017-11-30T23:04:31.059Z,52.80
2017-11-30T23:07:00.110Z,52.13
2017-11-30T23:09:29.210Z,49.27
2017-11-30T23:11:58.263Z,53.50
2017-11-30T23:14:26.545Z,47.40
2017-11-30T23:16:54.867Z,48.80
2017-11-30T23:19:23.150Z,47.50
2017-11-30T23:21:52.950Z,52.73
2017-11-30T23:24:21.281Z,51.73
2017-11-30T23:26:49.553Z,50.13
2017-11-30T23:29:17.837Z,53.00
2017-11-30T23:31:46.333Z,56.93
2017-11-30T23:34:14.614Z,55.73
2017-11-30T23:36:43.670Z,59.20
2017-11-30T23:39:12.009Z,59.27
2017-11-30T23:41:41.663Z,50.57
2017-11-30T23:44:10.219Z,51.20
2017-11-30T23:46:38.563Z,53.77
2017-11-30T23:49:06.851Z,53.83
2017-11-30T23:51:36.267Z,56.47
2017-11-30T23:54:04.598Z,57.80
2017-11-30T23:56:32.886Z,57.80
2017-11-30T23:59:02.315Z,54.33
